Time;durP1;ratioP1;P1;durP2;ratioP2;P2;SDS_P1;SDS_P2;PMS_P1;PMS_P2;Temp;Humidity;BMP_temperature;BMP_pressure;BME280_temperature;BME280_humidity;BME280_pressure;Samples;Min_cycle;Max_cycle;Signal;HPM_P1;HPM_P2
2023/07/13 00:02:18;;;;;;;5.65;4.20;;;;;;;;;;4948640;28;20132;-65
2023/07/13 00:04:44;;;;;;;5.18;3.40;;;;;;;;;;4947572;28;20043;-65
2023/07/13 00:07:09;;;;;;;7.70;3.88;;;;;;;;;;4948725;28;20535;-64
2023/07/13 00:09:35;;;;;;;5.45;3.80;;;;;;;;;;4947691;28;20519;-64
2023/07/13 00:12:01;;;;;;;7.10;3.72;;;;;;;;;;4947917;28;20482;-65
2023/07/13 00:14:28;;;;;;;5.80;4.03;;;;;;;;;;4948575;28;20118;-64
2023/07/13 00:16:55;;;;;;;4.07;3.20;;;;;;;;;;4947578;28;20114;-66
2023/07/13 00:19:21;;;;;;;6.13;3.80;;;;;;;;;;4948560;28;20039;-64
2023/07/13 00:21:47;;;;;;;8.80;3.65;;;;;;;;;;4947591;28;20097;-65
2023/07/13 00:24:16;;;;;;;7.03;3.63;;;;;;;;;;4947519;28;20047;-65
2023/07/13 00:26:45;;;;;;;8.43;3.88;;;;;;;;;;4949029;28;20486;-65
2023/07/13 00:29:11;;;;;;;7.90;3.45;;;;;;;;;;4948282;28;20059;-64
2023/07/13 00:31:37;;;;;;;6.07;3.88;;;;;;;;;;4949014;28;20541;-66
2023/07/13 00:34:03;;;;;;;8.15;4.32;;;;;;;;;;4948297;28;20065;-65
2023/07/13 00:36:30;;;;;;;9.93;4.22;;;;;;;;;;4947182;28;20479;-64
2023/07/13 00:38:56;;;;;;;8.85;4.15;;;;;;;;;;4948949;28;20051;-64
2023/07/13 00:41:21;;;;;;;4.93;3.85;;;;;;;;;;4946765;28;20394;-65
2023/07/13 00:43:47;;;;;;;8.55;3.85;;;;;;;;;;4948663;28;20043;-64
2023/07/13 00:46:20;;;;;;;6.20;4.55;;;;;;;;;;4948118;28;20094;-64
2023/07/13 00:48:48;;;;;;;6.80;3.67;;;;;;;;;;4948805;28;20055;-64
2023/07/13 00:51:21;;;;;;;7.72;3.30;;;;;;;;;;4948189;28;20438;-66
2023/07/13 00:53:47;;;;;;;6.40;4.00;;;;;;;;;;4947213;28;20487;-65
2023/07/13 00:56:13;;;;;;;6.05;3.60;;;;;;;;;;4948141;28;20067;-65
2023/07/13 00:58:38;;;;;;;7.82;3.83;;;;;;;;;;4947163;28;20070;-66
2023/07/13 01:01:04;;;;;;;6.90;3.90;;;;;;;;;;4944540;28;20448;-64
2023/07/13 01:03:29;;;;;;;7.88;4.60;;;;;;;;;;4947846;28;20094;-65
2023/07/13 01:05:55;;;;;;;4.22;3.28;;;;;;;;;;4962766;28;20047;-65
2023/07/13 01:08:22;;;;;;;6.32;3.90;;;;;;;;;;4964322;28;20051;-66
2023/07/13 01:10:56;;;;;;;6.28;3.65;;;;;;;;;;4952360;28;20081;-64
2023/07/13 01:13:21;;;;;;;12.05;3.40;;;;;;;;;;4951316;28;20529;-65
2023/07/13 01:15:51;;;;;;;6.95;4.68;;;;;;;;;;4951863;28;20054;-64
2023/07/13 01:18:24;;;;;;;6.47;4.05;;;;;;;;;;4951398;28;20039;-64
2023/07/13 01:21:02;;;;;;;5.63;3.55;;;;;;;;;;4951580;28;20521;-66
2023/07/13 01:23:29;;;;;;;5.75;3.67;;;;;;;;;;4951614;28;20154;-64
2023/07/13 01:25:55;;;;;;;7.78;3.33;;;;;;;;;;4951461;28;20047;-64
2023/07/13 01:28:23;;;;;;;6.85;3.67;;;;;;;;;;4965945;28;22751;-64
2023/07/13 01:30:48;;;;;;;5.68;3.42;;;;;;;;;;4951832;28;20047;-64
2023/07/13 01:33:16;;;;;;;5.85;3.50;;;;;;;;;;4951173;28;20102;-64
2023/07/13 01:35:44;;;;;;;6.63;3.78;;;;;;;;;;4951738;28;20040;-64
2023/07/13 01:38:10;;;;;;;6.72;3.75;;;;;;;;;;4951128;28;20047;-64
2023/07/13 01:40:37;;;;;;;6.80;3.63;;;;;;;;;;4951443;28;20550;-64
2023/07/13 01:43:04;;;;;;;6.82;4.00;;;;;;;;;;4949554;28;20442;-66
2023/07/13 01:45:29;;;;;;;6.90;3.20;;;;;;;;;;4950077;28;20040;-65
2023/07/13 01:47:55;;;;;;;4.72;3.35;;;;;;;;;;4951463;28;20047;-64
2023/07/13 01:50:20;;;;;;;6.30;3.80;;;;;;;;;;4951102;28;20810;-64
2023/07/13 01:52:46;;;;;;;6.13;3.65;;;;;;;;;;4950999;28;20146;-64
2023/07/13 01:55:11;;;;;;;4.85;3.47;;;;;;;;;;4965000;28;20122;-64
2023/07/13 01:57:37;;;;;;;5.60;3.80;;;;;;;;;;4950939;28;20070;-64
2023/07/13 02:00:09;;;;;;;5.57;3.72;;;;;;;;;;4951057;28;20039;-65
2023/07/13 02:02:35;;;;;;;6.25;3.67;;;;;;;;;;4950738;28;20063;-63
2023/07/13 02:05:00;;;;;;;6.32;3.67;;;;;;;;;;4965581;28;20052;-64
2023/07/13 02:07:26;;;;;;;5.90;3.60;;;;;;;;;;4950945;28;20047;-64
2023/07/13 02:09:51;;;;;;;5.07;3.33;;;;;;;;;;4950876;28;20039;-63
2023/07/13 02:12:17;;;;;;;7.18;4.22;;;;;;;;;;4950629;28;20062;-66
2023/07/13 02:14:42;;;;;;;5.78;3.83;;;;;;;;;;4950922;28;20123;-64
2023/07/13 02:17:10;;;;;;;5.30;3.63;;;;;;;;;;4950217;28;20051;-65
2023/07/13 02:19:36;;;;;;;6.25;3.85;;;;;;;;;;4950746;28;20425;-65
2023/07/13 02:22:01;;;;;;;7.05;4.30;;;;;;;;;;4950371;28;20362;-66
2023/07/13 02:24:27;;;;;;;6.00;3.92;;;;;;;;;;4950371;28;20130;-64
2023/07/13 02:26:52;;;;;;;6.45;3.97;;;;;;;;;;4950686;28;20055;-64
2023/07/13 02:29:18;;;;;;;4.75;3.63;;;;;;;;;;4950169;28;20110;-64
2023/07/13 02:31:43;;;;;;;4.50;3.70;;;;;;;;;;4950394;28;20043;-64
2023/07/13 02:34:09;;;;;;;5.45;4.03;;;;;;;;;;4950002;28;20043;-65
2023/07/13 02:36:34;;;;;;;5.95;4.22;;;;;;;;;;4950248;28;20066;-64
2023/07/13 02:39:05;;;;;;;6.65;4.25;;;;;;;;;;4950225;28;20043;-65
2023/07/13 02:41:31;;;;;;;6.20;4.10;;;;;;;;;;4948408;28;20053;-64
2023/07/13 02:44:03;;;;;;;7.47;4.20;;;;;;;;;;4948897;28;20122;-64
2023/07/13 02:46:33;;;;;;;7.13;4.22;;;;;;;;;;4964052;28;20610;-64
2023/07/13 02:48:59;;;;;;;8.27;4.35;;;;;;;;;;4964264;28;20131;-64
2023/07/13 02:51:25;;;;;;;5.35;3.95;;;;;;;;;;4949756;28;20051;-64
2023/07/13 02:53:51;;;;;;;5.05;3.78;;;;;;;;;;4948968;28;20079;-64
2023/07/13 02:56:22;;;;;;;6.85;3.85;;;;;;;;;;4949155;28;20044;-64
2023/07/13 02:58:47;;;;;;;5.28;3.80;;;;;;;;;;4949930;28;20058;-66
2023/07/13 03:01:13;;;;;;;6.82;4.13;;;;;;;;;;4949519;28;20054;-64
2023/07/13 03:03:38;;;;;;;6.68;4.18;;;;;;;;;;4949799;28;20059;-65
2023/07/13 03:06:07;;;;;;;5.68;4.30;;;;;;;;;;4949486;28;20050;-64
2023/07/13 03:08:33;;;;;;;7.10;3.90;;;;;;;;;;4949908;28;20043;-64
2023/07/13 03:11:02;;;;;;;6.40;4.30;;;;;;;;;;4949849;28;20043;-66
2023/07/13 03:13:28;;;;;;;8.95;4.63;;;;;;;;;;4949205;28;20042;-64
2023/07/13 03:15:54;;;;;;;8.13;4.90;;;;;;;;;;4948922;28;20738;-64
2023/07/13 03:18:19;;;;;;;8.95;5.47;;;;;;;;;;4962602;28;20042;-66
2023/07/13 03:20:45;;;;;;;6.82;4.93;;;;;;;;;;4950062;28;20499;-64
2023/07/13 03:23:10;;;;;;;7.90;5.47;;;;;;;;;;4949488;28;20118;-63
2023/07/13 03:25:36;;;;;;;7.82;4.72;;;;;;;;;;4964755;28;20043;-67
2023/07/13 03:28:01;;;;;;;9.95;4.97;;;;;;;;;;4949314;28;20066;-64
2023/07/13 03:30:27;;;;;;;6.85;4.18;;;;;;;;;;4949307;28;20045;-65
2023/07/13 03:32:52;;;;;;;6.03;4.47;;;;;;;;;;4949514;28;20058;-64
2023/07/13 03:35:18;;;;;;;6.32;4.65;;;;;;;;;;4948903;28;20058;-64
2023/07/13 03:37:43;;;;;;;7.25;4.68;;;;;;;;;;4949722;28;20094;-64
2023/07/13 03:40:10;;;;;;;6.63;4.70;;;;;;;;;;4948725;28;20046;-66
2023/07/13 03:42:36;;;;;;;7.85;4.72;;;;;;;;;;4949541;28;20048;-64
2023/07/13 03:45:01;;;;;;;8.07;4.78;;;;;;;;;;4949303;28;20099;-66
2023/07/13 03:47:27;;;;;;;6.30;4.63;;;;;;;;;;4948763;28;20061;-63
2023/07/13 03:49:53;;;;;;;7.38;5.07;;;;;;;;;;4949705;28;20398;-64
2023/07/13 03:52:18;;;;;;;6.45;4.93;;;;;;;;;;4948696;28;20410;-65
2023/07/13 03:54:44;;;;;;;7.45;4.63;;;;;;;;;;4949552;28;20054;-65
2023/07/13 03:57:09;;;;;;;5.72;4.13;;;;;;;;;;4949085;28;20490;-64
2023/07/13 03:59:35;;;;;;;7.15;4.68;;;;;;;;;;4949468;28;20043;-64
2023/07/13 04:02:01;;;;;;;6.45;4.50;;;;;;;;;;4949361;28;20474;-66
2023/07/13 04:04:27;;;;;;;8.20;5.00;;;;;;;;;;4949162;28;20051;-64
2023/07/13 04:06:53;;;;;;;7.97;4.85;;;;;;;;;;4949339;28;20132;-64
2023/07/13 04:09:19;;;;;;;9.00;4.55;;;;;;;;;;4948497;28;20054;-65
2023/07/13 04:11:44;;;;;;;8.32;4.57;;;;;;;;;;4963795;28;20047;-65
2023/07/13 04:14:10;;;;;;;7.80;4.65;;;;;;;;;;4948909;28;20118;-64
2023/07/13 04:16:35;;;;;;;9.95;4.97;;;;;;;;;;4963743;28;20122;-65
2023/07/13 04:19:01;;;;;;;7.53;4.47;;;;;;;;;;4948973;28;20493;-64
2023/07/13 04:21:28;;;;;;;9.15;4.68;;;;;;;;;;4949061;28;20058;-64
2023/07/13 04:23:54;;;;;;;6.40;4.10;;;;;;;;;;4963508;28;20046;-66
2023/07/13 04:26:23;;;;;;;8.15;4.45;;;;;;;;;;4963114;28;20048;-64
2023/07/13 04:28:50;;;;;;;8.43;4.50;;;;;;;;;;4949363;28;20035;-65
2023/07/13 04:31:15;;;;;;;7.68;4.32;;;;;;;;;;4947061;28;20053;-64
2023/07/13 04:33:41;;;;;;;7.45;4.30;;;;;;;;;;4949066;28;20039;-65
2023/07/13 04:36:09;;;;;;;6.72;4.50;;;;;;;;;;4948906;28;20040;-64
2023/07/13 04:38:36;;;;;;;6.90;3.92;;;;;;;;;;4963766;28;20061;-64
2023/07/13 04:41:06;;;;;;;6.03;4.03;;;;;;;;;;4963594;28;20542;-65
2023/07/13 04:43:32;;;;;;;6.38;4.03;;;;;;;;;;4950225;28;20047;-64
2023/07/13 04:46:05;;;;;;;4.38;3.67;;;;;;;;;;4952526;28;20059;-64
2023/07/13 04:48:30;;;;;;;5.82;3.58;;;;;;;;;;4950698;28;20074;-64
2023/07/13 04:50:58;;;;;;;6.00;4.10;;;;;;;;;;4952787;28;20067;-65
2023/07/13 04:53:23;;;;;;;5.47;3.85;;;;;;;;;;4952073;28;20075;-64
2023/07/13 04:55:49;;;;;;;4.70;3.70;;;;;;;;;;4967246;28;20508;-65
2023/07/13 04:58:14;;;;;;;5.38;3.65;;;;;;;;;;4951848;28;20047;-63
2023/07/13 05:00:40;;;;;;;7.00;4.00;;;;;;;;;;4951932;28;20058;-62
2023/07/13 05:03:05;;;;;;;6.72;3.95;;;;;;;;;;4951915;28;20043;-66
2023/07/13 05:05:31;;;;;;;6.00;3.47;;;;;;;;;;4966853;28;20410;-64
2023/07/13 05:07:57;;;;;;;4.32;3.17;;;;;;;;;;4951793;28;20054;-63
2023/07/13 05:10:23;;;;;;;5.93;3.65;;;;;;;;;;4951784;28;20047;-65
2023/07/13 05:12:49;;;;;;;5.30;3.65;;;;;;;;;;4952317;28;20050;-66
2023/07/13 05:15:15;;;;;;;6.28;3.92;;;;;;;;;;4951593;28;20386;-64
2023/07/13 05:17:41;;;;;;;5.95;3.60;;;;;;;;;;4966687;28;20039;-63
2023/07/13 05:20:08;;;;;;;6.07;3.72;;;;;;;;;;4951518;28;20040;-64
2023/07/13 05:22:35;;;;;;;6.93;3.40;;;;;;;;;;4966375;28;20513;-65
2023/07/13 05:25:02;;;;;;;7.65;4.20;;;;;;;;;;4966339;28;20093;-64
2023/07/13 05:27:27;;;;;;;5.40;3.22;;;;;;;;;;4951473;28;20118;-65
2023/07/13 05:29:53;;;;;;;10.18;3.83;;;;;;;;;;4951908;28;20048;-64
2023/07/13 05:32:18;;;;;;;4.88;3.22;;;;;;;;;;4951260;28;20411;-65
2023/07/13 05:34:44;;;;;;;5.57;3.42;;;;;;;;;;4950447;28;20272;-65
2023/07/13 05:37:10;;;;;;;7.78;4.47;;;;;;;;;;4950889;28;20080;-65
2023/07/13 05:39:35;;;;;;;8.55;4.22;;;;;;;;;;4951666;28;20877;-64
2023/07/13 05:42:02;;;;;;;8.70;4.45;;;;;;;;;;4951398;28;20102;-68
2023/07/13 05:44:27;;;;;;;9.70;4.07;;;;;;;;;;4951522;28;20378;-63
2023/07/13 05:46:54;;;;;;;6.95;3.40;;;;;;;;;;4951882;28;20043;-66
2023/07/13 05:49:21;;;;;;;6.80;3.80;;;;;;;;;;4950995;28;20055;-66
2023/07/13 05:51:46;;;;;;;5.38;3.03;;;;;;;;;;4951686;28;20043;-64
2023/07/13 05:54:12;;;;;;;7.15;2.90;;;;;;;;;;4950617;28;20533;-64
2023/07/13 05:56:37;;;;;;;10.35;3.38;;;;;;;;;;4951662;28;20043;-64
2023/07/13 05:59:03;;;;;;;6.13;2.78;;;;;;;;;;4965388;28;20042;-64
2023/07/13 06:01:29;;;;;;;6.30;2.88;;;;;;;;;;4951246;28;20082;-64
2023/07/13 06:03:55;;;;;;;6.13;3.53;;;;;;;;;;4950949;28;20139;-63
2023/07/13 06:06:20;;;;;;;4.25;2.67;;;;;;;;;;4950498;28;20039;-64
2023/07/13 06:08:46;;;;;;;6.80;2.92;;;;;;;;;;4950890;28;20075;-65
2023/07/13 06:11:22;;;;;;;4.47;2.55;;;;;;;;;;4950694;28;20102;-65
2023/07/13 06:13:48;;;;;;;8.35;2.75;;;;;;;;;;4950975;28;20048;-63
2023/07/13 06:16:14;;;;;;;6.15;3.05;;;;;;;;;;4965396;28;20177;-66
2023/07/13 06:18:40;;;;;;;8.70;2.92;;;;;;;;;;4949673;28;20066;-64
2023/07/13 06:21:21;;;;;;;6.38;2.83;;;;;;;;;;4950660;28;20561;-64
2023/07/13 06:23:49;;;;;;;3.63;2.17;;;;;;;;;;4950945;28;20133;-64
2023/07/13 06:26:16;;;;;;;4.70;2.55;;;;;;;;;;4964603;28;20062;-64
2023/07/13 06:28:42;;;;;;;11.55;2.63;;;;;;;;;;4965183;28;20084;-65
2023/07/13 06:31:10;;;;;;;5.93;2.45;;;;;;;;;;4950038;28;20107;-64
2023/07/13 06:33:37;;;;;;;5.33;2.47;;;;;;;;;;4949196;28;20121;-64
2023/07/13 06:36:04;;;;;;;7.57;2.30;;;;;;;;;;4964873;28;20043;-64
2023/07/13 06:38:30;;;;;;;4.50;2.67;;;;;;;;;;4950418;28;20047;-65
2023/07/13 06:40:56;;;;;;;5.63;2.65;;;;;;;;;;4965424;28;20051;-64
2023/07/13 06:43:22;;;;;;;4.35;2.50;;;;;;;;;;4949958;28;20804;-64
2023/07/13 06:45:49;;;;;;;6.82;2.45;;;;;;;;;;4949053;28;20047;-65
2023/07/13 06:48:16;;;;;;;4.37;2.27;;;;;;;;;;4964614;28;20039;-64
2023/07/13 06:50:42;;;;;;;3.50;2.17;;;;;;;;;;4950322;28;20098;-63
2023/07/13 06:53:11;;;;;;;5.38;2.95;;;;;;;;;;4949910;28;20054;-64
2023/07/13 06:55:37;;;;;;;5.07;2.70;;;;;;;;;;4965058;28;20039;-63
2023/07/13 06:58:03;;;;;;;6.03;2.45;;;;;;;;;;4950139;28;20047;-65
2023/07/13 07:00:29;;;;;;;3.60;2.50;;;;;;;;;;4965106;28;20050;-64
2023/07/13 07:02:54;;;;;;;7.28;2.78;;;;;;;;;;4965102;28;20043;-65
2023/07/13 07:05:21;;;;;;;7.85;3.20;;;;;;;;;;4948991;28;20409;-63
2023/07/13 07:07:51;;;;;;;5.95;2.22;;;;;;;;;;4950425;28;20136;-64
2023/07/13 07:10:18;;;;;;;4.38;2.13;;;;;;;;;;4949832;28;20138;-65
2023/07/13 07:12:43;;;;;;;7.13;2.70;;;;;;;;;;4950145;28;20035;-64
2023/07/13 07:15:09;;;;;;;3.42;2.30;;;;;;;;;;4964063;28;20470;-64
2023/07/13 07:17:35;;;;;;;5.75;2.42;;;;;;;;;;4948422;28;20147;-64
2023/07/13 07:20:00;;;;;;;5.13;2.55;;;;;;;;;;4964642;28;20035;-63
2023/07/13 07:22:27;;;;;;;5.65;2.30;;;;;;;;;;4949936;28;20042;-65
2023/07/13 07:24:53;;;;;;;6.45;2.40;;;;;;;;;;4949903;28;20746;-64
2023/07/13 07:27:19;;;;;;;4.13;2.05;;;;;;;;;;4949388;28;20051;-64
2023/07/13 07:29:44;;;;;;;4.57;1.85;;;;;;;;;;4949924;28;20047;-63
2023/07/13 07:32:10;;;;;;;3.25;2.00;;;;;;;;;;4949237;28;20054;-64
2023/07/13 07:34:35;;;;;;;3.00;1.88;;;;;;;;;;4950135;28;20047;-64
2023/07/13 07:37:02;;;;;;;4.35;2.00;;;;;;;;;;4948571;28;20051;-63
2023/07/13 07:39:27;;;;;;;3.05;1.90;;;;;;;;;;4949426;28;20406;-64
2023/07/13 07:41:53;;;;;;;2.92;1.92;;;;;;;;;;4949828;28;20057;-64
2023/07/13 07:44:18;;;;;;;3.85;2.03;;;;;;;;;;4949041;28;20189;-65
2023/07/13 07:46:44;;;;;;;4.10;2.20;;;;;;;;;;4949614;28;20042;-64
2023/07/13 07:49:10;;;;;;;6.72;2.03;;;;;;;;;;4947693;28;20065;-65
2023/07/13 07:51:36;;;;;;;2.85;1.92;;;;;;;;;;4949594;28;20043;-64
2023/07/13 07:54:02;;;;;;;4.25;1.70;;;;;;;;;;4947740;28;20223;-64
2023/07/13 07:56:27;;;;;;;3.15;2.08;;;;;;;;;;4949405;28;20704;-63
2023/07/13 07:58:52;;;;;;;2.42;1.70;;;;;;;;;;4949885;28;20051;-64
2023/07/13 08:01:18;;;;;;;4.38;2.08;;;;;;;;;;4963813;28;20039;-65
2023/07/13 08:03:43;;;;;;;3.88;1.95;;;;;;;;;;4949622;28;20043;-64
2023/07/13 08:06:09;;;;;;;3.08;1.85;;;;;;;;;;4949490;28;20039;-64
2023/07/13 08:08:35;;;;;;;3.53;1.80;;;;;;;;;;4949619;28;20047;-64
2023/07/13 08:11:05;;;;;;;2.38;1.90;;;;;;;;;;4949520;28;20044;-65
2023/07/13 08:13:30;;;;;;;3.15;1.70;;;;;;;;;;4963607;28;20494;-64
2023/07/13 08:15:56;;;;;;;3.50;1.90;;;;;;;;;;4949845;28;20049;-64
2023/07/13 08:18:22;;;;;;;3.13;1.95;;;;;;;;;;4952606;28;20047;-63
2023/07/13 08:20:47;;;;;;;3.60;1.98;;;;;;;;;;4953367;28;20538;-64
2023/07/13 08:23:13;;;;;;;2.75;2.05;;;;;;;;;;4953042;28;20047;-64
2023/07/13 08:25:38;;;;;;;3.63;2.08;;;;;;;;;;4968127;28;20071;-64
2023/07/13 08:28:04;;;;;;;3.38;2.33;;;;;;;;;;4952481;28;20057;-64
2023/07/13 08:30:30;;;;;;;2.45;1.65;;;;;;;;;;4967803;28;20040;-63
2023/07/13 08:32:55;;;;;;;2.47;1.60;;;;;;;;;;4968113;28;20391;-65
2023/07/13 08:35:21;;;;;;;2.58;2.08;;;;;;;;;;4952667;28;20043;-64
2023/07/13 08:37:47;;;;;;;3.25;2.33;;;;;;;;;;4951505;28;20494;-65
2023/07/13 08:40:12;;;;;;;3.17;1.92;;;;;;;;;;4952743;28;20067;-63
2023/07/13 08:42:59;;;;;;;3.53;2.10;;;;;;;;;;4967227;28;20118;-64
2023/07/13 08:45:48;;;;;;;2.97;2.40;;;;;;;;;;4966184;28;20035;-64
2023/07/13 08:48:19;;;;;;;4.03;2.17;;;;;;;;;;4966779;28;20139;-64
2023/07/13 08:51:27;;;;;;;2.33;1.45;;;;;;;;;;4951383;28;20043;-64
2023/07/13 08:53:59;;;;;;;3.03;1.98;;;;;;;;;;4952041;28;20055;-63
2023/07/13 08:56:29;;;;;;;5.63;2.25;;;;;;;;;;4952302;28;20062;-64
2023/07/13 08:59:06;;;;;;;2.47;1.77;;;;;;;;;;4967353;28;20114;-65
2023/07/13 09:02:16;;;;;;;4.88;1.88;;;;;;;;;;4951148;28;20047;-63
2023/07/13 09:05:03;;;;;;;3.28;2.20;;;;;;;;;;4950828;28;20043;-64
2023/07/13 09:07:46;;;;;;;6.40;1.98;;;;;;;;;;4966649;28;20482;-63
2023/07/13 09:10:20;;;;;;;2.63;1.60;;;;;;;;;;4952227;28;20146;-64
2023/07/13 09:13:23;;;;;;;2.95;1.77;;;;;;;;;;4966674;28;20050;-64
2023/07/13 09:15:50;;;;;;;2.42;1.90;;;;;;;;;;4952450;28;20065;-64
2023/07/13 09:18:27;;;;;;;4.13;2.08;;;;;;;;;;4951954;28;20047;-64
2023/07/13 09:21:03;;;;;;;3.65;2.28;;;;;;;;;;4967009;28;20043;-63
2023/07/13 09:23:30;;;;;;;4.25;1.92;;;;;;;;;;4952303;28;20047;-63
2023/07/13 09:26:12;;;;;;;5.97;2.22;;;;;;;;;;4966936;28;20047;-64
2023/07/13 09:28:47;;;;;;;4.63;2.70;;;;;;;;;;4980258;28;20101;-64
2023/07/13 09:31:31;;;;;;;3.05;2.33;;;;;;;;;;4951887;28;20399;-64
2023/07/13 09:33:58;;;;;;;3.58;2.10;;;;;;;;;;4965214;28;20058;-65
2023/07/13 09:36:30;;;;;;;4.05;2.30;;;;;;;;;;4966249;28;20053;-64
2023/07/13 09:39:05;;;;;;;4.07;2.40;;;;;;;;;;4966574;28;20043;-65
2023/07/13 09:41:34;;;;;;;5.07;2.60;;;;;;;;;;4951724;28;20062;-63
2023/07/13 09:44:30;;;;;;;3.38;2.40;;;;;;;;;;4952060;28;20051;-64
2023/07/13 09:46:56;;;;;;;3.30;2.00;;;;;;;;;;4965219;28;20402;-64
2023/07/13 09:49:35;;;;;;;2.58;1.80;;;;;;;;;;4951751;28;20099;-64
2023/07/13 09:52:10;;;;;;;3.15;2.00;;;;;;;;;;4949944;28;20111;-67
2023/07/13 09:54:37;;;;;;;2.90;1.90;;;;;;;;;;4966578;28;20035;-64
2023/07/13 09:57:13;;;;;;;3.70;2.13;;;;;;;;;;4950161;28;20134;-64
2023/07/13 09:59:49;;;;;;;2.55;2.08;;;;;;;;;;4950545;28;20506;-63
2023/07/13 10:02:24;;;;;;;3.35;2.47;;;;;;;;;;4949679;28;20050;-64
2023/07/13 10:05:02;;;;;;;3.35;1.80;;;;;;;;;;4951671;28;20232;-64
2023/07/13 10:07:28;;;;;;;;;;;;;;;;;;4950399;28;20668;-64
2023/07/13 10:09:55;;;;;;;4.40;2.20;;;;;;;;;;4951564;28;19923;-64
2023/07/13 10:12:25;;;;;;;5.05;2.47;;;;;;;;;;4965194;28;20067;-65
2023/07/13 10:14:55;;;;;;;5.47;2.45;;;;;;;;;;4951012;28;20105;-65
2023/07/13 10:17:30;;;;;;;4.38;2.15;;;;;;;;;;4965296;28;20050;-64
2023/07/13 10:20:02;;;;;;;4.13;2.50;;;;;;;;;;4965949;28;20043;-64
2023/07/13 10:22:49;;;;;;;3.60;2.38;;;;;;;;;;4949444;28;20036;-64
2023/07/13 10:25:22;;;;;;;6.00;3.55;;;;;;;;;;4963978;28;20043;-65
2023/07/13 10:27:54;;;;;;;6.05;2.53;;;;;;;;;;4951020;28;20052;-64
2023/07/13 10:30:32;;;;;;;2.85;1.90;;;;;;;;;;4950098;28;20051;-65
2023/07/13 10:33:11;;;;;;;3.50;2.67;;;;;;;;;;4949291;28;20043;-64
2023/07/13 10:35:42;;;;;;;4.90;2.30;;;;;;;;;;4948707;28;20039;-64
2023/07/13 10:38:18;;;;;;;4.88;2.25;;;;;;;;;;4947756;28;20083;-64
2023/07/13 10:41:03;;;;;;;3.63;2.03;;;;;;;;;;4934074;28;20070;-65
2023/07/13 10:43:44;;;;;;;2.65;2.10;;;;;;;;;;4947130;28;20055;-64
2023/07/13 10:46:16;;;;;;;1.30;0.95;;;;;;;;;;4949648;28;20047;-65
2023/07/13 10:48:45;;;;;;;3.67;1.75;;;;;;;;;;4949890;28;20090;-64
2023/07/13 10:51:14;;;;;;;;;;;;;;;;;;4941157;28;20055;-64
2023/07/13 10:53:40;;;;;;;0.93;0.75;;;;;;;;;;4964559;28;20017;-65
2023/07/13 10:56:22;;;;;;;3.03;1.05;;;;;;;;;;4948109;28;20130;-66
2023/07/13 10:59:16;;;;;;;3.63;1.60;;;;;;;;;;4950268;28;20506;-64
2023/07/13 11:02:08;;;;;;;2.40;1.30;;;;;;;;;;4949449;28;20114;-64
2023/07/13 11:04:47;;;;;;;1.58;1.05;;;;;;;;;;4963069;28;20069;-64
2023/07/13 11:07:27;;;;;;;1.33;0.88;;;;;;;;;;4948178;28;20035;-63
2023/07/13 11:09:57;;;;;;;1.98;0.90;;;;;;;;;;4964421;28;20083;-65
2023/07/13 11:12:22;;;;;;;2.25;1.13;;;;;;;;;;4949461;28;20059;-66
2023/07/13 11:15:06;;;;;;;2.90;1.40;;;;;;;;;;4949739;28;20050;-64
2023/07/13 11:17:32;;;;;;;2.20;1.33;;;;;;;;;;4969715;28;20064;-64
2023/07/13 11:20:12;;;;;;;1.85;1.08;;;;;;;;;;4952516;28;20406;-64
2023/07/13 11:22:48;;;;;;;2.45;1.02;;;;;;;;;;4949263;28;20063;-64
2023/07/13 11:25:29;;;;;;;2.25;0.98;;;;;;;;;;4947759;28;20131;-64
2023/07/13 11:28:26;;;;;;;1.55;1.02;;;;;;;;;;4964120;28;20043;-65
2023/07/13 11:30:57;;;;;;;4.13;1.15;;;;;;;;;;4947668;28;20055;-64
2023/07/13 11:33:48;;;;;;;2.42;1.00;;;;;;;;;;4948921;28;20118;-64
2023/07/13 11:36:22;;;;;;;1.98;0.90;;;;;;;;;;4949156;28;20084;-64
2023/07/13 11:39:14;;;;;;;3.33;0.98;;;;;;;;;;4964390;28;20039;-64
2023/07/13 11:41:49;;;;;;;1.95;0.88;;;;;;;;;;4949298;28;20066;-64
2023/07/13 11:44:20;;;;;;;1.52;0.60;;;;;;;;;;4949329;28;20062;-65
2023/07/13 11:47:00;;;;;;;2.38;0.88;;;;;;;;;;4948385;28;20219;-64
2023/07/13 11:49:30;;;;;;;1.42;0.77;;;;;;;;;;4947966;28;20035;-66
2023/07/13 11:51:57;;;;;;;1.48;0.88;;;;;;;;;;4963896;28;20051;-65
2023/07/13 11:54:43;;;;;;;2.13;0.90;;;;;;;;;;4962813;28;20071;-65
2023/07/13 11:57:25;;;;;;;1.23;0.80;;;;;;;;;;4947401;28;20525;-65
2023/07/13 11:59:56;;;;;;;0.93;0.70;;;;;;;;;;4949420;28;20070;-64
2023/07/13 12:02:33;;;;;;;1.42;0.80;;;;;;;;;;4963494;28;20573;-66
2023/07/13 12:05:02;;;;;;;1.25;0.60;;;;;;;;;;4948231;28;20043;-64
2023/07/13 12:07:31;;;;;;;2.00;1.00;;;;;;;;;;4947505;28;20063;-64
2023/07/13 12:10:24;;;;;;;;;;;;;;;;;;4949178;28;20051;-66
2023/07/13 12:12:56;;;;;;;1.88;0.90;;;;;;;;;;4949380;28;19930;-64
2023/07/13 12:15:28;;;;;;;4.63;0.95;;;;;;;;;;4948957;28;20047;-65
2023/07/13 12:17:56;;;;;;;0.68;0.68;;;;;;;;;;4948519;28;20051;-64
2023/07/13 12:20:33;;;;;;;1.67;0.87;;;;;;;;;;4963274;28;20047;-64
2023/07/13 12:22:59;;;;;;;3.85;1.10;;;;;;;;;;4948126;28;20410;-64
2023/07/13 12:25:25;;;;;;;2.17;1.10;;;;;;;;;;4948886;28;20035;-64
2023/07/13 12:27:51;;;;;;;2.08;1.02;;;;;;;;;;4963828;28;20091;-64
2023/07/13 12:30:35;;;;;;;2.28;1.20;;;;;;;;;;4963259;28;20082;-64
2023/07/13 12:33:08;;;;;;;1.45;1.02;;;;;;;;;;4961634;28;20106;-66
2023/07/13 12:35:44;;;;;;;1.80;1.10;;;;;;;;;;4948452;28;20662;-64
2023/07/13 12:38:11;;;;;;;3.60;1.20;;;;;;;;;;4966254;28;20525;-64
2023/07/13 12:40:37;;;;;;;2.50;1.30;;;;;;;;;;4956495;28;20047;-65
2023/07/13 12:43:04;;;;;;;2.58;1.45;;;;;;;;;;4957864;28;20079;-66
2023/07/13 12:45:30;;;;;;;3.33;1.33;;;;;;;;;;4949033;28;20061;-64
2023/07/13 12:48:02;;;;;;;1.77;1.40;;;;;;;;;;4966500;28;20031;-65
2023/07/13 12:50:37;;;;;;;1.92;1.23;;;;;;;;;;4965754;28;20042;-64
2023/07/13 12:53:09;;;;;;;1.92;1.30;;;;;;;;;;4965524;28;20042;-64
2023/07/13 12:55:59;;;;;;;2.10;1.15;;;;;;;;;;4966702;28;20054;-64
2023/07/13 12:58:30;;;;;;;2.08;1.30;;;;;;;;;;4966958;28;20034;-64
2023/07/13 13:00:59;;;;;;;1.60;1.17;;;;;;;;;;4968134;28;20077;-64
2023/07/13 13:03:27;;;;;;;4.13;1.60;;;;;;;;;;4968236;28;20038;-64
2023/07/13 13:06:04;;;;;;;4.55;1.10;;;;;;;;;;4971828;28;20047;-64
2023/07/13 13:08:32;;;;;;;1.73;1.40;;;;;;;;;;4971590;28;20047;-65
2023/07/13 13:10:57;;;;;;;3.00;1.25;;;;;;;;;;4971751;28;20742;-64
2023/07/13 13:13:24;;;;;;;1.83;1.15;;;;;;;;;;4969813;28;20038;-65
2023/07/13 13:15:50;;;;;;;2.33;1.45;;;;;;;;;;4971776;28;20058;-64
2023/07/13 13:18:19;;;;;;;1.67;1.20;;;;;;;;;;4970506;28;20039;-64
2023/07/13 13:20:46;;;;;;;2.35;1.27;;;;;;;;;;4969816;28;20482;-64
2023/07/13 13:23:17;;;;;;;2.50;1.42;;;;;;;;;;4969604;28;20042;-65
2023/07/13 13:25:44;;;;;;;2.30;1.08;;;;;;;;;;4969883;28;20108;-65
2023/07/13 13:28:18;;;;;;;3.75;1.33;;;;;;;;;;4969486;28;20405;-64
2023/07/13 13:30:46;;;;;;;3.05;1.67;;;;;;;;;;4971513;28;20054;-65
2023/07/13 13:33:15;;;;;;;2.97;1.13;;;;;;;;;;4969818;28;20126;-65
2023/07/13 13:35:44;;;;;;;4.80;1.52;;;;;;;;;;4969761;28;20138;-64
2023/07/13 13:38:16;;;;;;;2.67;1.40;;;;;;;;;;4970069;28;20053;-65
2023/07/13 13:40:43;;;;;;;2.70;1.50;;;;;;;;;;4970059;28;20050;-64
2023/07/13 13:43:29;;;;;;;5.50;1.50;;;;;;;;;;4970584;28;20477;-65
2023/07/13 13:45:59;;;;;;;1.60;1.33;;;;;;;;;;4970856;28;20053;-64
2023/07/13 13:48:36;;;;;;;5.07;1.80;;;;;;;;;;4969325;28;20062;-64
2023/07/13 13:51:14;;;;;;;3.38;1.55;;;;;;;;;;4968956;28;20497;-66
2023/07/13 13:53:39;;;;;;;2.85;1.58;;;;;;;;;;4969503;28;20055;-65
2023/07/13 13:56:05;;;;;;;4.72;1.77;;;;;;;;;;4970384;28;20643;-65
2023/07/13 13:58:30;;;;;;;2.50;1.67;;;;;;;;;;4971153;28;20047;-64
2023/07/13 14:00:56;;;;;;;3.50;2.20;;;;;;;;;;4971440;28;20474;-65
2023/07/13 14:03:21;;;;;;;2.15;1.35;;;;;;;;;;4970326;28;20051;-64
2023/07/13 14:05:49;;;;;;;2.08;1.50;;;;;;;;;;4968919;28;20101;-64
2023/07/13 14:08:20;;;;;;;3.38;1.92;;;;;;;;;;4969947;28;20045;-65
2023/07/13 14:10:53;;;;;;;3.05;1.88;;;;;;;;;;4970265;28;20050;-64
2023/07/13 14:13:39;;;;;;;3.60;2.25;;;;;;;;;;4970135;28;20824;-64
2023/07/13 14:16:12;;;;;;;9.82;2.83;;;;;;;;;;4968462;28;20039;-65
2023/07/13 14:18:38;;;;;;;3.10;2.28;;;;;;;;;;4970523;28;20469;-64
2023/07/13 14:21:10;;;;;;;3.63;1.95;;;;;;;;;;4968605;28;20046;-64
2023/07/13 14:23:36;;;;;;;3.53;2.30;;;;;;;;;;4969198;28;20141;-64
2023/07/13 14:26:01;;;;;;;5.85;2.45;;;;;;;;;;4970029;28;20046;-65
2023/07/13 14:28:28;;;;;;;2.50;2.00;;;;;;;;;;4970434;28;20039;-65
2023/07/13 14:30:57;;;;;;;2.28;1.95;;;;;;;;;;4970352;28;20062;-64
2023/07/13 14:33:22;;;;;;;;;;;;;;;;;;4969936;28;20508;-64
2023/07/13 14:35:50;;;;;;;4.57;1.75;;;;;;;;;;4970189;28;19926;-64
2023/07/13 14:38:19;;;;;;;3.60;1.85;;;;;;;;;;4969759;28;20207;-64
2023/07/13 14:40:45;;;;;;;2.42;1.33;;;;;;;;;;4968988;28;20081;-64
2023/07/13 14:43:14;;;;;;;2.20;1.67;;;;;;;;;;4970081;28;20066;-64
2023/07/13 14:45:49;;;;;;;5.13;2.00;;;;;;;;;;4968431;28;20046;-64
2023/07/13 14:48:24;;;;;;;2.45;1.73;;;;;;;;;;4969034;28;20581;-65
2023/07/13 14:50:58;;;;;;;2.30;1.30;;;;;;;;;;4967985;28;20058;-64
2023/07/13 14:53:29;;;;;;;2.42;1.60;;;;;;;;;;4967635;28;20085;-65
2023/07/13 14:55:54;;;;;;;2.28;1.88;;;;;;;;;;4968349;28;20050;-64
2023/07/13 14:58:20;;;;;;;4.60;2.05;;;;;;;;;;4969125;28;20050;-64